sensor_id;sensor_type;location;lat;lon;timestamp;pressure;altitude;pressure_sealevel;temperature;humidity
74659;BME280;63186;51.204;6.536;2023-08-17T00:01:47;101460.34;;;16.12;100.00
74659;BME280;63186;51.204;6.536;2023-08-17T00:04:13;101451.84;;;16.08;100.00
74659;BME280;63186;51.204;6.536;2023-08-17T00:06:38;101460.53;;;16.07;100.00
74659;BME280;63186;51.204;6.536;2023-08-17T00:09:04;101462.63;;;16.10;100.00
74659;BME280;63186;51.204;6.536;2023-08-17T00:11:29;101447.63;;;16.11;100.00
74659;BME280;63186;51.204;6.536;2023-08-17T00:13:55;101452.84;;;16.12;100.00
74659;BME280;63186;51.204;6.536;2023-08-17T00:16:20;101454.47;;;16.13;100.00
74659;BME280;63186;51.204;6.536;2023-08-17T00:18:45;101450.19;;;16.16;100.00
74659;BME280;63186;51.204;6.536;2023-08-17T00:21:10;101443.00;;;16.15;100.00
74659;BME280;63186;51.204;6.536;2023-08-17T00:23:36;101454.94;;;16.15;100.00
74659;BME280;63186;51.204;6.536;2023-08-17T00:26:01;101458.53;;;16.16;100.00
74659;BME280;63186;51.204;6.536;2023-08-17T00:28:27;101452.16;;;16.15;100.00
74659;BME280;63186;51.204;6.536;2023-08-17T00:30:52;101451.00;;;16.16;100.00
74659;BME280;63186;51.204;6.536;2023-08-17T00:33:17;101442.38;;;16.18;100.00
74659;BME280;63186;51.204;6.536;2023-08-17T00:35:43;101439.91;;;16.16;100.00
74659;BME280;63186;51.204;6.536;2023-08-17T00:38:08;101445.44;;;16.16;100.00
74659;BME280;63186;51.204;6.536;2023-08-17T00:40:34;101449.03;;;16.17;100.00
74659;BME280;63186;51.204;6.536;2023-08-17T00:42:59;101444.00;;;16.19;100.00
74659;BME280;63186;51.204;6.536;2023-08-17T00:45:26;101444.81;;;16.19;100.00
74659;BME280;63186;51.204;6.536;2023-08-17T00:47:53;101438.78;;;16.17;100.00
74659;BME280;63186;51.204;6.536;2023-08-17T00:50:19;101427.50;;;16.14;100.00
74659;BME280;63186;51.204;6.536;2023-08-17T00:52:44;101439.75;;;16.13;100.00
74659;BME280;63186;51.204;6.536;2023-08-17T00:55:11;101431.44;;;16.13;100.00
74659;BME280;63186;51.204;6.536;2023-08-17T00:57:36;101435.03;;;16.13;100.00
74659;BME280;63186;51.204;6.536;2023-08-17T01:00:02;101436.50;;;16.11;100.00
74659;BME280;63186;51.204;6.536;2023-08-17T01:02:30;101439.13;;;16.07;100.00
74659;BME280;63186;51.204;6.536;2023-08-17T01:04:55;101440.59;;;16.05;100.00
74659;BME280;63186;51.204;6.536;2023-08-17T01:07:21;101438.66;;;16.05;100.00
74659;BME280;63186;51.204;6.536;2023-08-17T01:09:46;101436.69;;;16.06;100.00
74659;BME280;63186;51.204;6.536;2023-08-17T01:12:31;101437.50;;;16.06;100.00
74659;BME280;63186;51.204;6.536;2023-08-17T01:15:02;101426.84;;;16.08;100.00
74659;BME280;63186;51.204;6.536;2023-08-17T01:17:37;101420.34;;;16.04;100.00
74659;BME280;63186;51.204;6.536;2023-08-17T01:20:07;101421.16;;;16.05;100.00
74659;BME280;63186;51.204;6.536;2023-08-17T01:22:35;101420.66;;;16.02;100.00
74659;BME280;63186;51.204;6.536;2023-08-17T01:25:01;101427.53;;;16.05;100.00
74659;BME280;63186;51.204;6.536;2023-08-17T01:27:39;101419.19;;;16.05;100.00
74659;BME280;63186;51.204;6.536;2023-08-17T01:30:05;101424.75;;;16.05;100.00
74659;BME280;63186;51.204;6.536;2023-08-17T01:35:28;101424.41;;;16.07;100.00
74659;BME280;63186;51.204;6.536;2023-08-17T01:37:59;101428.00;;;16.07;100.00
74659;BME280;63186;51.204;6.536;2023-08-17T01:40:27;101433.56;;;16.07;100.00
74659;BME280;63186;51.204;6.536;2023-08-17T01:42:54;101435.53;;;16.07;100.00
74659;BME280;63186;51.204;6.536;2023-08-17T01:45:21;101435.19;;;16.08;100.00
74659;BME280;63186;51.204;6.536;2023-08-17T01:47:48;101436.00;;;16.09;100.00
74659;BME280;63186;51.204;6.536;2023-08-17T01:50:14;101425.22;;;16.07;100.00
74659;BME280;63186;51.204;6.536;2023-08-17T01:52:39;101432.75;;;16.07;100.00
74659;BME280;63186;51.204;6.536;2023-08-17T01:55:05;101431.13;;;16.06;100.00
74659;BME280;63186;51.204;6.536;2023-08-17T01:57:30;101426.84;;;16.08;100.00
74659;BME280;63186;51.204;6.536;2023-08-17T01:59:55;101431.59;;;16.08;100.00
74659;BME280;63186;51.204;6.536;2023-08-17T02:02:20;101416.44;;;16.05;100.00
74659;BME280;63186;51.204;6.536;2023-08-17T02:04:46;101421.97;;;16.05;100.00
74659;BME280;63186;51.204;6.536;2023-08-17T02:07:12;101414.47;;;16.06;100.00
74659;BME280;63186;51.204;6.536;2023-08-17T02:09:37;101422.13;;;16.09;100.00
74659;BME280;63186;51.204;6.536;2023-08-17T02:12:02;101418.88;;;16.07;100.00
74659;BME280;63186;51.204;6.536;2023-08-17T02:14:28;101419.69;;;16.07;100.00
74659;BME280;63186;51.204;6.536;2023-08-17T02:16:53;101418.53;;;16.08;100.00
74659;BME280;63186;51.204;6.536;2023-08-17T02:19:18;101426.72;;;16.05;100.00
74659;BME280;63186;51.204;6.536;2023-08-17T02:21:44;101418.41;;;16.05;100.00
74659;BME280;63186;51.204;6.536;2023-08-17T02:24:10;101414.63;;;16.00;100.00
74659;BME280;63186;51.204;6.536;2023-08-17T02:26:35;101421.81;;;16.01;100.00
74659;BME280;63186;51.204;6.536;2023-08-17T02:29:00;101415.78;;;15.99;100.00
74659;BME280;63186;51.204;6.536;2023-08-17T02:31:25;101417.25;;;15.97;100.00
74659;BME280;63186;51.204;6.536;2023-08-17T02:33:51;101416.59;;;16.00;100.00
74659;BME280;63186;51.204;6.536;2023-08-17T02:36:16;101420.88;;;15.97;100.00
74659;BME280;63186;51.204;6.536;2023-08-17T02:38:41;101415.97;;;15.94;100.00
74659;BME280;63186;51.204;6.536;2023-08-17T02:41:07;101410.75;;;15.93;100.00
74659;BME280;63186;51.204;6.536;2023-08-17T02:43:32;101405.53;;;15.91;100.00
74659;BME280;63186;51.204;6.536;2023-08-17T02:45:57;101409.13;;;15.92;100.00
74659;BME280;63186;51.204;6.536;2023-08-17T02:48:24;101405.19;;;15.93;100.00
74659;BME280;63186;51.204;6.536;2023-08-17T02:50:49;101413.19;;;15.94;100.00
74659;BME280;63186;51.204;6.536;2023-08-17T02:53:15;101410.41;;;15.94;100.00
74659;BME280;63186;51.204;6.536;2023-08-17T02:55:40;101398.00;;;15.92;100.00
74659;BME280;63186;51.204;6.536;2023-08-17T02:58:05;101394.44;;;15.91;100.00
74659;BME280;63186;51.204;6.536;2023-08-17T03:00:31;101391.66;;;15.91;100.00
74659;BME280;63186;51.204;6.536;2023-08-17T03:02:56;101390.31;;;15.89;100.00
74659;BME280;63186;51.204;6.536;2023-08-17T03:05:21;101398.66;;;15.89;100.00
74659;BME280;63186;51.204;6.536;2023-08-17T03:07:46;101399.97;;;15.91;100.00
74659;BME280;63186;51.204;6.536;2023-08-17T03:10:12;101400.78;;;15.92;100.00
74659;BME280;63186;51.204;6.536;2023-08-17T03:12:38;101405.66;;;15.95;100.00
74659;BME280;63186;51.204;6.536;2023-08-17T03:15:05;101390.16;;;15.94;100.00
74659;BME280;63186;51.204;6.536;2023-08-17T03:17:30;101400.13;;;15.95;100.00
74659;BME280;63186;51.204;6.536;2023-08-17T03:19:56;101394.09;;;15.93;100.00
74659;BME280;63186;51.204;6.536;2023-08-17T03:22:24;101397.69;;;15.93;100.00
74659;BME280;63186;51.204;6.536;2023-08-17T03:24:49;101398.81;;;15.92;100.00
74659;BME280;63186;51.204;6.536;2023-08-17T03:27:14;101401.91;;;15.91;100.00
74659;BME280;63186;51.204;6.536;2023-08-17T03:29:40;101402.41;;;15.93;100.00
74659;BME280;63186;51.204;6.536;2023-08-17T03:32:05;101405.31;;;15.96;100.00
74659;BME280;63186;51.204;6.536;2023-08-17T03:34:30;101397.00;;;15.96;100.00
74659;BME280;63186;51.204;6.536;2023-08-17T03:36:56;101400.13;;;15.95;100.00
74659;BME280;63186;51.204;6.536;2023-08-17T03:39:21;101398.66;;;15.97;100.00
74659;BME280;63186;51.204;6.536;2023-08-17T03:41:46;101394.09;;;15.93;100.00
74659;BME280;63186;51.204;6.536;2023-08-17T03:44:11;101395.22;;;15.92;100.00
74659;BME280;63186;51.204;6.536;2023-08-17T03:46:38;101397.50;;;15.90;100.00
74659;BME280;63186;51.204;6.536;2023-08-17T03:49:04;101399.63;;;15.93;100.00
74659;BME280;63186;51.204;6.536;2023-08-17T03:51:29;101402.25;;;15.89;100.00
74659;BME280;63186;51.204;6.536;2023-08-17T03:53:54;101401.09;;;15.90;100.00
74659;BME280;63186;51.204;6.536;2023-08-17T03:56:20;101395.88;;;15.89;100.00
74659;BME280;63186;51.204;6.536;2023-08-17T03:58:45;101392.97;;;15.85;100.00
74659;BME280;63186;51.204;6.536;2023-08-17T04:01:10;101406.34;;;15.83;100.00
74659;BME280;63186;51.204;6.536;2023-08-17T04:03:36;101408.66;;;15.81;100.00
74659;BME280;63186;51.204;6.536;2023-08-17T04:06:05;101411.09;;;15.83;100.00
74659;BME280;63186;51.204;6.536;2023-08-17T04:08:31;101414.19;;;15.81;100.00
74659;BME280;63186;51.204;6.536;2023-08-17T04:10:56;101410.13;;;15.79;100.00
74659;BME280;63186;51.204;6.536;2023-08-17T04:13:22;101415.53;;;15.75;100.00
74659;BME280;63186;51.204;6.536;2023-08-17T04:15:47;101412.59;;;15.71;100.00
74659;BME280;63186;51.204;6.536;2023-08-17T04:18:12;101411.28;;;15.69;100.00
74659;BME280;63186;51.204;6.536;2023-08-17T04:20:38;101409.66;;;15.68;100.00
74659;BME280;63186;51.204;6.536;2023-08-17T04:23:03;101420.59;;;15.73;100.00
74659;BME280;63186;51.204;6.536;2023-08-17T04:25:28;101412.44;;;15.68;100.00
74659;BME280;63186;51.204;6.536;2023-08-17T04:27:54;101418.47;;;15.70;100.00
74659;BME280;63186;51.204;6.536;2023-08-17T04:30:19;101421.25;;;15.70;100.00
74659;BME280;63186;51.204;6.536;2023-08-17T04:32:44;101423.19;;;15.69;100.00
74659;BME280;63186;51.204;6.536;2023-08-17T04:35:15;101418.81;;;15.68;100.00
74659;BME280;63186;51.204;6.536;2023-08-17T04:37:41;101432.19;;;15.66;100.00
74659;BME280;63186;51.204;6.536;2023-08-17T04:40:06;101431.88;;;15.68;100.00
74659;BME280;63186;51.204;6.536;2023-08-17T04:42:32;101437.06;;;15.69;100.00
74659;BME280;63186;51.204;6.536;2023-08-17T04:44:57;101432.34;;;15.70;100.00
74659;BME280;63186;51.204;6.536;2023-08-17T04:47:22;101433.16;;;15.70;100.00
74659;BME280;63186;51.204;6.536;2023-08-17T04:49:48;101433.50;;;15.69;100.00
74659;BME280;63186;51.204;6.536;2023-08-17T04:52:13;101436.75;;;15.71;100.00
74659;BME280;63186;51.204;6.536;2023-08-17T04:54:44;101435.13;;;15.70;100.00
74659;BME280;63186;51.204;6.536;2023-08-17T04:57:09;101425.50;;;15.67;100.00
74659;BME280;63186;51.204;6.536;2023-08-17T04:59:35;101429.56;;;15.70;100.00
74659;BME280;63186;51.204;6.536;2023-08-17T05:02:01;101433.97;;;15.71;100.00
74659;BME280;63186;51.204;6.536;2023-08-17T05:04:26;101430.72;;;15.69;100.00
74659;BME280;63186;51.204;6.536;2023-08-17T05:06:51;101434.81;;;15.71;100.00
74659;BME280;63186;51.204;6.536;2023-08-17T05:09:16;101433.16;;;15.70;100.00
74659;BME280;63186;51.204;6.536;2023-08-17T05:11:42;101432.84;;;15.72;100.00
74659;BME280;63186;51.204;6.536;2023-08-17T05:14:07;101429.25;;;15.71;100.00
74659;BME280;63186;51.204;6.536;2023-08-17T05:16:33;101430.53;;;15.74;100.00
74659;BME280;63186;51.204;6.536;2023-08-17T05:18:58;101442.47;;;15.74;100.00
74659;BME280;63186;51.204;6.536;2023-08-17T05:21:24;101444.56;;;15.78;100.00
74659;BME280;63186;51.204;6.536;2023-08-17T05:23:50;101444.91;;;15.76;100.00
74659;BME280;63186;51.204;6.536;2023-08-17T05:26:15;101437.38;;;15.77;100.00
74659;BME280;63186;51.204;6.536;2023-08-17T05:28:40;101434.94;;;15.75;100.00
74659;BME280;63186;51.204;6.536;2023-08-17T05:31:06;101445.41;;;15.78;100.00
74659;BME280;63186;51.204;6.536;2023-08-17T05:33:32;101449.00;;;15.79;100.00
74659;BME280;63186;51.204;6.536;2023-08-17T05:35:57;101442.63;;;15.78;100.00
74659;BME280;63186;51.204;6.536;2023-08-17T05:38:23;101439.19;;;15.81;100.00
74659;BME280;63186;51.204;6.536;2023-08-17T05:40:57;101444.75;;;15.81;100.00
74659;BME280;63186;51.204;6.536;2023-08-17T05:43:23;101445.22;;;15.83;100.00
74659;BME280;63186;51.204;6.536;2023-08-17T05:45:48;101446.03;;;15.84;100.00
74659;BME280;63186;51.204;6.536;2023-08-17T05:48:14;101445.53;;;15.90;100.00
74659;BME280;63186;51.204;6.536;2023-08-17T05:50:43;101434.28;;;15.87;100.00
74659;BME280;63186;51.204;6.536;2023-08-17T05:53:08;101419.75;;;15.81;100.00
74659;BME280;63186;51.204;6.536;2023-08-17T05:55:33;101446.81;;;16.01;100.00
74659;BME280;63186;51.204;6.536;2023-08-17T05:57:59;101428.34;;;15.97;100.00
74659;BME280;63186;51.204;6.536;2023-08-17T06:00:24;101430.78;;;16.07;100.00
74659;BME280;63186;51.204;6.536;2023-08-17T06:02:49;101437.94;;;16.17;100.00
74659;BME280;63186;51.204;6.536;2023-08-17T06:05:19;101455.41;;;16.26;100.00
74659;BME280;63186;51.204;6.536;2023-08-17T06:07:44;101446.59;;;16.24;100.00
74659;BME280;63186;51.204;6.536;2023-08-17T06:10:10;101451.94;;;16.29;100.00
74659;BME280;63186;51.204;6.536;2023-08-17T06:12:35;101444.47;;;16.21;100.00
74659;BME280;63186;51.204;6.536;2023-08-17T06:15:04;101453.44;;;16.26;100.00
74659;BME280;63186;51.204;6.536;2023-08-17T06:17:29;101461.25;;;16.33;100.00
74659;BME280;63186;51.204;6.536;2023-08-17T06:19:55;101461.94;;;16.30;100.00
74659;BME280;63186;51.204;6.536;2023-08-17T06:22:20;101464.03;;;16.33;100.00
74659;BME280;63186;51.204;6.536;2023-08-17T06:24:45;101457.84;;;16.27;100.00
74659;BME280;63186;51.204;6.536;2023-08-17T06:27:14;101461.44;;;16.28;100.00
74659;BME280;63186;51.204;6.536;2023-08-17T06:29:39;101457.50;;;16.29;100.00
74659;BME280;63186;51.204;6.536;2023-08-17T06:32:05;101459.47;;;16.28;100.00
74659;BME280;63186;51.204;6.536;2023-08-17T06:34:30;101460.28;;;16.29;100.00
74659;BME280;63186;51.204;6.536;2023-08-17T06:37:01;101461.09;;;16.29;100.00
74659;BME280;63186;51.204;6.536;2023-08-17T06:39:26;101452.63;;;16.26;100.00
74659;BME280;63186;51.204;6.536;2023-08-17T06:41:52;101462.88;;;16.34;100.00
74659;BME280;63186;51.204;6.536;2023-08-17T06:44:18;101456.66;;;16.37;100.00
74659;BME280;63186;51.204;6.536;2023-08-17T06:46:43;101461.06;;;16.38;100.00
74659;BME280;63186;51.204;6.536;2023-08-17T06:49:08;101461.56;;;16.40;100.00
74659;BME280;63186;51.204;6.536;2023-08-17T06:51:33;101463.34;;;16.36;100.00
74659;BME280;63186;51.204;6.536;2023-08-17T06:53:59;101460.91;;;16.35;100.00
74659;BME280;63186;51.204;6.536;2023-08-17T06:56:25;101469.06;;;16.40;100.00
74659;BME280;63186;51.204;6.536;2023-08-17T06:58:50;101453.06;;;16.37;100.00
74659;BME280;63186;51.204;6.536;2023-08-17T07:01:15;101460.72;;;16.40;100.00
74659;BME280;63186;51.204;6.536;2023-08-17T07:03:41;101452.25;;;16.36;100.00
74659;BME280;63186;51.204;6.536;2023-08-17T07:06:06;101463.69;;;16.43;100.00
74659;BME280;63186;51.204;6.536;2023-08-17T07:08:32;101462.03;;;16.42;100.00
74659;BME280;63186;51.204;6.536;2023-08-17T07:10:58;101473.63;;;16.44;100.00
74659;BME280;63186;51.204;6.536;2023-08-17T07:13:23;101468.25;;;16.39;100.00
74659;BME280;63186;51.204;6.536;2023-08-17T07:15:48;101469.41;;;16.38;100.00
74659;BME280;63186;51.204;6.536;2023-08-17T07:18:14;101464.03;;;16.33;100.00
74659;BME280;63186;51.204;6.536;2023-08-17T07:20:39;101470.03;;;16.44;100.00
74659;BME280;63186;51.204;6.536;2023-08-17T07:23:04;101475.59;;;16.44;100.00
74659;BME280;63186;51.204;6.536;2023-08-17T07:25:30;101485.22;;;16.46;100.00
74659;BME280;63186;51.204;6.536;2023-08-17T07:27:55;101492.06;;;16.49;100.00
74659;BME280;63186;51.204;6.536;2023-08-17T07:30:20;101481.47;;;16.51;100.00
74659;BME280;63186;51.204;6.536;2023-08-17T07:32:46;101488.13;;;16.59;100.00
74659;BME280;63186;51.204;6.536;2023-08-17T07:35:11;101481.88;;;16.62;100.00
74659;BME280;63186;51.204;6.536;2023-08-17T07:37:36;101478.91;;;16.67;100.00
74659;BME280;63186;51.204;6.536;2023-08-17T07:40:02;101477.44;;;16.69;100.00
74659;BME280;63186;51.204;6.536;2023-08-17T07:42:30;101490.19;;;16.79;100.00
74659;BME280;63186;51.204;6.536;2023-08-17T07:44:55;101474.59;;;16.87;100.00
74659;BME280;63186;51.204;6.536;2023-08-17T07:47:20;101483.91;;;16.91;100.00
74659;BME280;63186;51.204;6.536;2023-08-17T07:49:46;101484.53;;;16.96;100.00
74659;BME280;63186;51.204;6.536;2023-08-17T07:52:11;101493.19;;;16.95;100.00
74659;BME280;63186;51.204;6.536;2023-08-17T07:54:36;101494.84;;;16.96;100.00
74659;BME280;63186;51.204;6.536;2023-08-17T07:57:02;101495.13;;;17.03;100.00
74659;BME280;63186;51.204;6.536;2023-08-17T07:59:28;101501.50;;;17.03;100.00
74659;BME280;63186;51.204;6.536;2023-08-17T08:01:54;101501.00;;;17.01;100.00
74659;BME280;63186;51.204;6.536;2023-08-17T08:04:19;101490.22;;;17.00;100.00
74659;BME280;63186;51.204;6.536;2023-08-17T08:06:44;101490.84;;;17.05;100.00
74659;BME280;63186;51.204;6.536;2023-08-17T08:09:09;101492.44;;;17.15;100.00
74659;BME280;63186;51.204;6.536;2023-08-17T08:11:35;101502.88;;;17.18;100.00
74659;BME280;63186;51.204;6.536;2023-08-17T08:14:00;101494.53;;;17.18;100.00
74659;BME280;63186;51.204;6.536;2023-08-17T08:16:26;101498.56;;;17.21;100.00
74659;BME280;63186;51.204;6.536;2023-08-17T08:18:51;101511.16;;;17.27;100.00
74659;BME280;63186;51.204;6.536;2023-08-17T08:21:17;101502.19;;;17.21;100.00
74659;BME280;63186;51.204;6.536;2023-08-17T08:23:42;101494.53;;;17.18;100.00
74659;BME280;63186;51.204;6.536;2023-08-17T08:26:07;101502.69;;;17.23;100.00
74659;BME280;63186;51.204;6.536;2023-08-17T08:28:33;101503.06;;;17.34;100.00
74659;BME280;63186;51.204;6.536;2023-08-17T08:31:02;101484.91;;;17.36;100.00
74659;BME280;63186;51.204;6.536;2023-08-17T08:33:28;101496.16;;;17.40;100.00
74659;BME280;63186;51.204;6.536;2023-08-17T08:35:53;101497.25;;;17.48;100.00
74659;BME280;63186;51.204;6.536;2023-08-17T08:38:18;101496.22;;;17.52;100.00
74659;BME280;63186;51.204;6.536;2023-08-17T08:40:44;101502.13;;;17.51;100.00
74659;BME280;63186;51.204;6.536;2023-08-17T08:43:12;101500.16;;;17.51;100.00
74659;BME280;63186;51.204;6.536;2023-08-17T08:45:37;101512.47;;;17.50;100.00
74659;BME280;63186;51.204;6.536;2023-08-17T08:48:04;101499.69;;;17.49;100.00
74659;BME280;63186;51.204;6.536;2023-08-17T08:50:31;101498.34;;;17.55;100.00
74659;BME280;63186;51.204;6.536;2023-08-17T08:53:00;101503.00;;;17.63;100.00
74659;BME280;63186;51.204;6.536;2023-08-17T08:55:29;101497.59;;;17.67;100.00
74659;BME280;63186;51.204;6.536;2023-08-17T08:57:56;101496.22;;;17.73;100.00
74659;BME280;63186;51.204;6.536;2023-08-17T09:00:22;101495.75;;;17.71;100.00
74659;BME280;63186;51.204;6.536;2023-08-17T09:02:48;101495.28;;;17.69;100.00
74659;BME280;63186;51.204;6.536;2023-08-17T09:05:14;101490.66;;;17.73;100.00
74659;BME280;63186;51.204;6.536;2023-08-17T09:07:41;101485.94;;;17.74;100.00
74659;BME280;63186;51.204;6.536;2023-08-17T09:10:09;101495.81;;;17.83;100.00
74659;BME280;63186;51.204;6.536;2023-08-17T09:12:34;101492.88;;;17.80;100.00
74659;BME280;63186;51.204;6.536;2023-08-17T09:14:59;101484.13;;;17.69;100.00
74659;BME280;63186;51.204;6.536;2023-08-17T09:17:28;101483.97;;;17.66;100.00
74659;BME280;63186;51.204;6.536;2023-08-17T09:19:53;101494.19;;;17.61;100.00
74659;BME280;63186;51.204;6.536;2023-08-17T09:22:36;101495.47;;;17.64;100.00
74659;BME280;63186;51.204;6.536;2023-08-17T09:25:03;101477.81;;;17.60;100.00
74659;BME280;63186;51.204;6.536;2023-08-17T09:27:31;101488.06;;;17.68;100.00
74659;BME280;63186;51.204;6.536;2023-08-17T09:30:09;101485.28;;;17.68;100.00
74659;BME280;63186;51.204;6.536;2023-08-17T09:32:35;101480.63;;;17.81;100.00
74659;BME280;63186;51.204;6.536;2023-08-17T09:35:04;101485.50;;;17.84;100.00
74659;BME280;63186;51.204;6.536;2023-08-17T09:37:31;101482.59;;;17.80;100.00
74659;BME280;63186;51.204;6.536;2023-08-17T09:39:56;101477.13;;;17.84;100.00
74659;BME280;63186;51.204;6.536;2023-08-17T09:42:22;101475.31;;;17.88;100.00
74659;BME280;63186;51.204;6.536;2023-08-17T09:44:48;101491.66;;;17.89;100.00
74659;BME280;63186;51.204;6.536;2023-08-17T09:47:14;101486.09;;;17.89;100.00
74659;BME280;63186;51.204;6.536;2023-08-17T09:49:40;101486.44;;;17.88;100.00
74659;BME280;63186;51.204;6.536;2023-08-17T09:52:06;101470.88;;;17.87;100.00
74659;BME280;63186;51.204;6.536;2023-08-17T09:54:31;101473.78;;;17.90;100.00
74659;BME280;63186;51.204;6.536;2023-08-17T09:57:00;101466.59;;;17.89;100.00
74659;BME280;63186;51.204;6.536;2023-08-17T09:59:26;101463.38;;;18.00;100.00
74659;BME280;63186;51.204;6.536;2023-08-17T10:01:51;101465.69;;;17.98;100.00
74659;BME280;63186;51.204;6.536;2023-08-17T10:04:20;101460.09;;;17.98;100.00
74659;BME280;63186;51.204;6.536;2023-08-17T10:06:50;101461.06;;;18.02;100.00
74659;BME280;63186;51.204;6.536;2023-08-17T10:09:23;101451.22;;;18.16;100.00
74659;BME280;63186;51.204;6.536;2023-08-17T10:11:52;101455.22;;;18.40;100.00
74659;BME280;63186;51.204;6.536;2023-08-17T10:14:25;101447.66;;;18.53;100.00
74659;BME280;63186;51.204;6.536;2023-08-17T10:16:57;101451.72;;;18.55;100.00
74659;BME280;63186;51.204;6.536;2023-08-17T10:19:37;101451.50;;;18.48;100.00
74659;BME280;63186;51.204;6.536;2023-08-17T10:22:12;101463.22;;;18.54;100.00
74659;BME280;63186;51.204;6.536;2023-08-17T10:24:40;101454.72;;;18.50;100.00
74659;BME280;63186;51.204;6.536;2023-08-17T10:27:06;101458.34;;;18.51;100.00
74659;BME280;63186;51.204;6.536;2023-08-17T10:29:31;101455.09;;;18.49;100.00
74659;BME280;63186;51.204;6.536;2023-08-17T10:31:59;101465.06;;;18.50;100.00
74659;BME280;63186;51.204;6.536;2023-08-17T10:34:26;101469.47;;;18.51;100.00
74659;BME280;63186;51.204;6.536;2023-08-17T10:36:52;101473.25;;;18.67;100.00
74659;BME280;63186;51.204;6.536;2023-08-17T10:39:25;101470.34;;;18.76;100.00
74659;BME280;63186;51.204;6.536;2023-08-17T10:41:51;101470.78;;;18.65;100.00
74659;BME280;63186;51.204;6.536;2023-08-17T10:44:18;101469.50;;;18.63;100.00
74659;BME280;63186;51.204;6.536;2023-08-17T10:47:30;101466.72;;;18.63;100.00
74659;BME280;63186;51.204;6.536;2023-08-17T10:50:20;101462.69;;;18.85;100.00
74659;BME280;63186;51.204;6.536;2023-08-17T10:52:48;101474.59;;;19.10;100.00
74659;BME280;63186;51.204;6.536;2023-08-17T10:55:14;101475.88;;;19.12;100.00
74659;BME280;63186;51.204;6.536;2023-08-17T10:57:40;101463.13;;;18.99;100.00
74659;BME280;63186;51.204;6.536;2023-08-17T11:00:24;101475.78;;;18.96;100.00
74659;BME280;63186;51.204;6.536;2023-08-17T11:02:54;101476.03;;;18.91;100.00
74659;BME280;63186;51.204;6.536;2023-08-17T11:08:19;101471.28;;;18.67;100.00
74659;BME280;63186;51.204;6.536;2023-08-17T11:11:05;101472.91;;;18.68;100.00
74659;BME280;63186;51.204;6.536;2023-08-17T11:13:32;101469.13;;;18.64;100.00
74659;BME280;63186;51.204;6.536;2023-08-17T11:15:59;101472.09;;;18.68;100.00
74659;BME280;63186;51.204;6.536;2023-08-17T11:18:25;101479.53;;;18.76;100.00
74659;BME280;63186;51.204;6.536;2023-08-17T11:20:50;101480.81;;;18.79;100.00
74659;BME280;63186;51.204;6.536;2023-08-17T11:23:16;101479.88;;;18.87;100.00
74659;BME280;63186;51.204;6.536;2023-08-17T11:25:42;101479.97;;;18.90;100.00
74659;BME280;63186;51.204;6.536;2023-08-17T11:28:07;101476.72;;;18.88;100.00
74659;BME280;63186;51.204;6.536;2023-08-17T11:30:36;101482.06;;;18.93;100.00
74659;BME280;63186;51.204;6.536;2023-08-17T11:33:04;101486.84;;;19.05;100.00
74659;BME280;63186;51.204;6.536;2023-08-17T11:35:29;101491.47;;;19.13;100.00
74659;BME280;63186;51.204;6.536;2023-08-17T11:37:55;101485.50;;;19.27;100.00
74659;BME280;63186;51.204;6.536;2023-08-17T11:40:20;101487.31;;;19.47;100.00
74659;BME280;63186;51.204;6.536;2023-08-17T11:42:46;101481.34;;;19.61;100.00
74659;BME280;63186;51.204;6.536;2023-08-17T11:45:12;101484.00;;;19.70;100.00
74659;BME280;63186;51.204;6.536;2023-08-17T11:47:38;101486.66;;;19.78;100.00
74659;BME280;63186;51.204;6.536;2023-08-17T11:50:05;101483.75;;;20.03;100.00
74659;BME280;63186;51.204;6.536;2023-08-17T11:52:31;101486.38;;;20.27;100.00
74659;BME280;63186;51.204;6.536;2023-08-17T11:55:01;101476.53;;;20.33;100.00
74659;BME280;63186;51.204;6.536;2023-08-17T11:57:27;101484.63;;;20.51;100.00
74659;BME280;63186;51.204;6.536;2023-08-17T11:59:54;101484.78;;;20.58;100.00
74659;BME280;63186;51.204;6.536;2023-08-17T12:02:20;101478.75;;;20.56;100.00
74659;BME280;63186;51.204;6.536;2023-08-17T12:04:46;101476.22;;;20.51;100.00
74659;BME280;63186;51.204;6.536;2023-08-17T12:07:11;101481.13;;;20.54;100.00
74659;BME280;63186;51.204;6.536;2023-08-17T12:09:37;101477.75;;;20.64;100.00
74659;BME280;63186;51.204;6.536;2023-08-17T12:12:03;101477.56;;;20.73;100.00
74659;BME280;63186;51.204;6.536;2023-08-17T12:14:28;101477.13;;;20.71;100.00
74659;BME280;63186;51.204;6.536;2023-08-17T12:16:54;101474.25;;;20.67;100.00
74659;BME280;63186;51.204;6.536;2023-08-17T12:19:20;101463.75;;;20.64;100.00
74659;BME280;63186;51.204;6.536;2023-08-17T12:24:11;101473.34;;;20.63;100.00
74659;BME280;63186;51.204;6.536;2023-08-17T12:26:43;101477.03;;;20.51;100.00
74659;BME280;63186;51.204;6.536;2023-08-17T12:29:09;101479.09;;;20.70;100.00
74659;BME280;63186;51.204;6.536;2023-08-17T12:31:34;101472.75;;;20.89;100.00
74659;BME280;63186;51.204;6.536;2023-08-17T12:34:00;101466.53;;;20.96;99.70
74659;BME280;63186;51.204;6.536;2023-08-17T12:36:25;101468.56;;;20.99;99.33
74659;BME280;63186;51.204;6.536;2023-08-17T12:38:50;101467.06;;;21.01;99.63
74659;BME280;63186;51.204;6.536;2023-08-17T12:41:16;101478.16;;;20.98;99.16
74659;BME280;63186;51.204;6.536;2023-08-17T12:43:42;101466.78;;;20.91;99.78
74659;BME280;63186;51.204;6.536;2023-08-17T12:46:07;101473.84;;;20.84;100.00